Johnson Siding, SD

1:46 AM MDT on April 25, 2017 (GMT -0600)
Johnson Siding | | Change Station
Active Advisory: Winter Weather Advisory

Elev 4465 ft 44.10 °N, 103.44 °W | Updated 9 minutes ago

Snow
Snow
32.8 °F
Feels Like 33 °F
N
1.0
Wind Variable Wind from East
Gusts 4.0 mph

Today
High -- | Low -- °F
--% Chance of Precip.
Yesterday
High -- | Low -- °F
Precip. -- in
Pressure 29.67 in
Visibility 10.0 miles
Clouds Overcast 600 ft
Windchill 33 °F
Dew Point 32 °F
Humidity 95%
Rainfall 0.12 in
Snow Depth Not available.
5:53 AM 7:50 PM
Waning Crescent, 2% visible
SPECI KRCA 250731Z AUTO 07008KT 10SM OVC006 03/03 A2965 RMK AO2 RAE06 SLP045
Pressure 29.67 in
Visibility 10.0 miles
Clouds Overcast 600 ft
Windchill 33 °F
Dew Point 32 °F
Humidity 95%
Rainfall 0.12 in
Snow Depth Not available.
5:53 AM 7:50 PM
Waning Crescent, 2% visible
SPECI KRCA 250731Z AUTO 07008KT 10SM OVC006 03/03 A2965 RMK AO2 RAE06 SLP045

Get Your Daily Forecast Email!

Thanks for signing up!

Be on the lookout for a verification email in your inbox.

You'll start receiving severe weather alerts in your inbox..

×

10-Day Weather Forecast

Almanac

Astronomy

Apr. 25, 2017 Rise Set
Actual Time
Civil Twilight
Nautical Twilight
Astronomical Twilight
Moon
Length of Visible Light
Length of Day
Tomorrow will be .
, % of the Moon is Illuminated

Today's Extremes

State Highs State Lows

Community

WunderPhotos

WunderBlog® & News

Nearby

Air Quality

  Air Quality AQ Index Pollutant
Not available.

Snow Depth

Station Depth Elevation

Earthquake Activity

City Distance Mag. Time & Date
Minimum magnitude displayed is 2.5.

Coastal Water Temperatures

Place Temperature

Stations

Nearby Weather Stations

Station Location Temp. Windchill Dew Point Humidity Wind Precip. Elev Updated Type
                   

Watches & Warnings

Winter Weather Advisory
Issued: 3:55 PM MDT Apr. 24, 2017 – National Weather Service

... Winter Weather Advisory remains in effect from midnight
tonight to 3 PM MDT Tuesday...

* timing... rain will move into the area this evening, changing
over to snow after midnight. Snow will persist into Tuesday
morning, tapering off in the afternoon.

* Main impact... snowfall totals of 2 to 6 inches are expected,
with the higher amounts generally over the higher elevations of
the northern and central Black Hills.

* Other impacts... with many trees beginning to Leaf out, the
heavy wet snow could bring down some tree limbs.

Precautionary/preparedness actions...

A Winter Weather Advisory for snow means snow accumulation will
create hazardous conditions. Use caution when traveling.